Time;durP1;ratioP1;P1;durP2;ratioP2;P2;SDS_P1;SDS_P2;PMS_P1;PMS_P2;Temp;Humidity;BMP_temperature;BMP_pressure;BME280_temperature;BME280_humidity;BME280_pressure;Samples;Min_cycle;Max_cycle;Signal;HPM_P1;HPM_P2
2023/01/12 00:02:07;;;;;;;8.52;1.00;;;;;;;;;;5015066;28;20065;-77
2023/01/12 00:04:33;;;;;;;3.42;0.75;;;;;;;;;;5016331;28;20046;-76
2023/01/12 00:06:58;;;;;;;10.23;1.63;;;;;;;;;;5015830;28;20033;-77
2023/01/12 00:09:25;;;;;;;4.40;0.55;;;;;;;;;;5017699;28;20041;-77
2023/01/12 00:11:50;;;;;;;5.32;1.85;;;;;;;;;;5014524;28;20424;-76
2023/01/12 00:14:15;;;;;;;8.48;0.85;;;;;;;;;;5014024;28;20121;-77
2023/01/12 00:16:41;;;;;;;6.93;0.80;;;;;;;;;;5024583;28;20041;-76
2023/01/12 00:19:14;;;;;;;2.45;0.95;;;;;;;;;;5028938;28;20469;-76
2023/01/12 00:24:32;;;;;;;6.28;0.73;;;;;;;;;;5020840;28;20065;-76
2023/01/12 00:26:59;;;;;;;2.88;0.60;;;;;;;;;;5028013;28;20037;-76
2023/01/12 00:29:25;;;;;;;5.90;0.70;;;;;;;;;;5029335;28;20040;-76
2023/01/12 00:31:54;;;;;;;6.97;0.68;;;;;;;;;;5024018;28;20167;-76
2023/01/12 00:34:20;;;;;;;0.57;0.38;;;;;;;;;;5025819;28;20038;-76
2023/01/12 00:36:46;;;;;;;4.47;0.65;;;;;;;;;;5026590;28;20034;-76
2023/01/12 00:39:13;;;;;;;17.35;4.10;;;;;;;;;;5026794;28;20069;-76
2023/01/12 00:47:08;;;;;;;2.53;0.63;;;;;;;;;;5028148;28;20396;-77
2023/01/12 00:49:34;;;;;;;2.50;0.70;;;;;;;;;;5046560;28;20050;-77
2023/01/12 00:52:00;;;;;;;2.72;0.50;;;;;;;;;;5028805;28;20124;-76
2023/01/12 00:54:25;;;;;;;6.07;0.50;;;;;;;;;;5026341;28;20456;-76
2023/01/12 00:56:51;;;;;;;0.52;0.47;;;;;;;;;;5026464;28;20596;-76
2023/01/12 00:59:16;;;;;;;2.85;0.40;;;;;;;;;;5023298;28;20037;-76
2023/01/12 01:01:41;;;;;;;1.80;0.55;;;;;;;;;;5030986;28;20175;-76
2023/01/12 01:04:07;;;;;;;4.90;0.40;;;;;;;;;;5029838;28;20504;-75
2023/01/12 01:06:32;;;;;;;1.77;0.65;;;;;;;;;;5024478;28;20038;-75
2023/01/12 01:08:58;;;;;;;2.05;0.55;;;;;;;;;;5025453;28;20115;-76
2023/01/12 01:11:23;;;;;;;3.35;0.73;;;;;;;;;;5019705;28;20045;-76
2023/01/12 01:13:49;;;;;;;1.95;0.50;;;;;;;;;;5020085;28;20017;-76
2023/01/12 01:16:15;;;;;;;1.90;0.50;;;;;;;;;;5020704;28;20030;-76
2023/01/12 01:18:42;;;;;;;1.40;0.57;;;;;;;;;;5017259;28;20453;-76
2023/01/12 01:21:08;;;;;;;1.40;0.45;;;;;;;;;;5017130;28;20368;-75
2023/01/12 01:23:35;;;;;;;0.35;0.20;;;;;;;;;;5021538;28;20052;-76
2023/01/12 01:26:05;;;;;;;2.60;0.40;;;;;;;;;;5026177;28;20551;-76
2023/01/12 01:28:31;;;;;;;0.98;0.40;;;;;;;;;;5028413;28;20030;-75
2023/01/12 01:31:08;;;;;;;1.75;0.40;;;;;;;;;;5022927;28;20478;-76
2023/01/12 01:33:34;;;;;;;1.58;0.35;;;;;;;;;;5011662;28;20049;-76
2023/01/12 01:35:59;;;;;;;3.25;0.60;;;;;;;;;;5017476;28;20041;-76
2023/01/12 01:38:25;;;;;;;0.82;0.35;;;;;;;;;;5030056;28;20041;-76
2023/01/12 01:40:50;;;;;;;2.15;0.63;;;;;;;;;;5032346;28;20091;-76
2023/01/12 01:43:18;;;;;;;2.05;0.32;;;;;;;;;;5027012;28;20038;-77
2023/01/12 01:45:45;;;;;;;2.50;0.55;;;;;;;;;;5024302;28;20049;-76
2023/01/12 01:48:13;;;;;;;2.08;0.40;;;;;;;;;;5033374;28;20044;-76
2023/01/12 01:50:40;;;;;;;1.83;0.32;;;;;;;;;;5019073;28;20482;-76
2023/01/12 01:53:13;;;;;;;0.60;0.40;;;;;;;;;;5025317;28;20046;-76
2023/01/12 01:55:50;;;;;;;1.88;0.60;;;;;;;;;;5018619;28;20123;-76
2023/01/12 01:58:19;;;;;;;1.00;0.30;;;;;;;;;;5018304;28;20169;-76
2023/01/12 02:00:45;;;;;;;0.98;0.30;;;;;;;;;;5031067;28;20095;-76
2023/01/12 02:03:11;;;;;;;2.33;0.50;;;;;;;;;;5014655;28;20133;-76
2023/01/12 02:05:38;;;;;;;2.50;0.40;;;;;;;;;;5020152;28;20041;-76
2023/01/12 02:08:10;;;;;;;2.22;0.30;;;;;;;;;;5025161;28;20065;-78
2023/01/12 02:10:36;;;;;;;0.90;0.40;;;;;;;;;;5027766;28;20504;-76
2023/01/12 02:16:19;;;;;;;1.25;0.55;;;;;;;;;;5018406;28;20057;-76
2023/01/12 02:18:47;;;;;;;0.73;0.35;;;;;;;;;;5006201;28;20065;-76
2023/01/12 02:21:19;;;;;;;1.15;0.47;;;;;;;;;;5022821;28;20037;-76
2023/01/12 02:23:56;;;;;;;0.98;0.45;;;;;;;;;;5017107;28;20509;-76
2023/01/12 02:26:49;;;;;;;2.90;0.52;;;;;;;;;;5011104;28;20068;-76
2023/01/12 02:29:29;;;;;;;2.72;0.38;;;;;;;;;;5019819;28;20038;-77
2023/01/12 02:31:55;;;;;;;2.40;0.47;;;;;;;;;;5021384;28;20125;-76
2023/01/12 02:34:49;;;;;;;1.70;0.28;;;;;;;;;;5032096;28;20125;-76
2023/01/12 02:37:18;;;;;;;;;;;;;;;;;;5008021;28;20477;-76
2023/01/12 02:40:06;;;;;;;4.22;0.88;;;;;;;;;;5023585;28;19948;-76
2023/01/12 02:42:49;;;;;;;1.98;0.50;;;;;;;;;;5019528;28;20037;-77
2023/01/12 02:45:17;;;;;;;3.55;0.43;;;;;;;;;;5020282;28;20079;-77
2023/01/12 02:47:57;;;;;;;1.67;0.28;;;;;;;;;;5030136;28;20049;-76
2023/01/12 02:50:55;;;;;;;4.00;0.68;;;;;;;;;;5022619;28;20054;-76
2023/01/12 02:53:29;;;;;;;1.50;0.45;;;;;;;;;;5010188;28;20448;-76
2023/01/12 02:55:56;;;;;;;1.70;0.40;;;;;;;;;;5020432;28;20085;-76
2023/01/12 02:58:22;;;;;;;0.43;0.32;;;;;;;;;;5024632;28;20060;-77
2023/01/12 03:00:49;;;;;;;1.60;0.73;;;;;;;;;;5014738;28;20088;-77
2023/01/12 03:03:16;;;;;;;1.45;0.50;;;;;;;;;;5025163;28;20041;-76
2023/01/12 03:05:42;;;;;;;1.48;0.60;;;;;;;;;;5021333;28;20092;-76
2023/01/12 03:08:10;;;;;;;4.13;0.50;;;;;;;;;;5028080;28;20052;-76
2023/01/12 03:10:45;;;;;;;1.38;0.60;;;;;;;;;;5020482;28;20604;-76
2023/01/12 03:13:12;;;;;;;1.90;0.30;;;;;;;;;;5025431;28;20046;-76
2023/01/12 03:15:41;;;;;;;1.25;0.57;;;;;;;;;;5018047;28;20088;-78
2023/01/12 03:18:26;;;;;;;1.23;0.47;;;;;;;;;;5023084;28;20041;-76
2023/01/12 03:21:00;;;;;;;2.33;0.50;;;;;;;;;;5018644;28;20115;-76
2023/01/12 03:23:30;;;;;;;4.28;0.82;;;;;;;;;;5016974;28;20113;-76
2023/01/12 03:25:57;;;;;;;0.80;0.30;;;;;;;;;;5022224;28;20046;-76
2023/01/12 03:28:26;;;;;;;1.20;0.43;;;;;;;;;;5015382;28;20461;-78
2023/01/12 03:30:55;;;;;;;1.73;0.50;;;;;;;;;;5016031;28;20033;-77
2023/01/12 03:33:21;;;;;;;2.50;0.40;;;;;;;;;;5023802;28;20064;-76
2023/01/12 03:36:10;;;;;;;1.55;0.40;;;;;;;;;;5019183;28;20064;-76
2023/01/12 03:38:45;;;;;;;1.55;0.60;;;;;;;;;;5009383;28;20049;-77
2023/01/12 03:41:56;;;;;;;4.38;0.40;;;;;;;;;;5018129;28;20033;-75
2023/01/12 03:44:51;;;;;;;3.38;0.95;;;;;;;;;;5013229;28;20429;-76
2023/01/12 03:47:23;;;;;;;1.33;0.40;;;;;;;;;;5007937;28;20049;-76
2023/01/12 03:49:55;;;;;;;3.05;0.73;;;;;;;;;;5019991;28;20485;-75
2023/01/12 03:52:21;;;;;;;2.00;0.50;;;;;;;;;;5027372;28;20049;-76
2023/01/12 03:54:47;;;;;;;6.80;0.80;;;;;;;;;;5029639;28;20038;-76
2023/01/12 03:57:14;;;;;;;0.95;0.40;;;;;;;;;;5026182;28;20116;-76
2023/01/12 03:59:40;;;;;;;5.78;0.63;;;;;;;;;;5023850;28;20030;-75
2023/01/12 04:02:05;;;;;;;1.05;0.50;;;;;;;;;;5026835;28;20124;-76
2023/01/12 04:04:31;;;;;;;0.65;0.30;;;;;;;;;;5023099;28;20117;-75
2023/01/12 04:06:56;;;;;;;1.40;0.57;;;;;;;;;;5026457;28;20033;-76
2023/01/12 04:09:24;;;;;;;1.55;0.25;;;;;;;;;;5030509;28;20473;-76
2023/01/12 04:14:33;;;;;;;1.73;0.60;;;;;;;;;;5019125;28;20476;-76
2023/01/12 04:16:58;;;;;;;2.90;0.88;;;;;;;;;;5026477;28;20041;-75
2023/01/12 04:19:24;;;;;;;0.45;0.22;;;;;;;;;;5026901;28;20033;-78
2023/01/12 04:24:33;;;;;;;3.95;0.52;;;;;;;;;;5021860;28;20421;-76
2023/01/12 04:26:58;;;;;;;4.75;0.60;;;;;;;;;;5031659;28;20030;-76
2023/01/12 04:29:24;;;;;;;1.10;0.90;;;;;;;;;;5023471;28;20037;-76
2023/01/12 04:31:49;;;;;;;6.18;0.77;;;;;;;;;;5016543;28;20437;-75
2023/01/12 04:34:14;;;;;;;1.10;0.40;;;;;;;;;;5021248;28;20025;-76
2023/01/12 04:36:43;;;;;;;2.88;0.60;;;;;;;;;;5014208;28;20057;-76
2023/01/12 04:39:08;;;;;;;3.50;0.50;;;;;;;;;;5017153;28;20056;-75
2023/01/12 04:41:34;;;;;;;4.50;0.30;;;;;;;;;;5015491;28;20478;-76
2023/01/12 04:43:59;;;;;;;1.75;0.40;;;;;;;;;;5024895;28;20034;-76
2023/01/12 04:46:25;;;;;;;3.30;0.40;;;;;;;;;;5015566;28;20046;-76
2023/01/12 04:48:50;;;;;;;1.85;0.50;;;;;;;;;;5019363;28;20112;-75
2023/01/12 04:51:15;;;;;;;0.82;0.45;;;;;;;;;;5025061;28;20050;-75
2023/01/12 04:53:41;;;;;;;1.67;0.63;;;;;;;;;;5022518;28;20382;-75
2023/01/12 04:56:07;;;;;;;1.40;0.43;;;;;;;;;;5022738;28;20057;-75
2023/01/12 04:58:33;;;;;;;2.60;0.57;;;;;;;;;;5022056;28;20254;-75
2023/01/12 05:01:07;;;;;;;2.33;0.70;;;;;;;;;;5017472;28;20367;-75
2023/01/12 05:03:32;;;;;;;2.75;0.40;;;;;;;;;;5023942;28;20394;-76
2023/01/12 05:05:58;;;;;;;2.50;0.50;;;;;;;;;;5022650;28;20045;-75
2023/01/12 05:11:07;;;;;;;1.40;0.30;;;;;;;;;;5028845;28;20132;-75
2023/01/12 05:13:32;;;;;;;2.47;0.47;;;;;;;;;;5030162;28;20459;-75
2023/01/12 05:16:12;;;;;;;0.63;0.30;;;;;;;;;;5030864;28;20041;-75
2023/01/12 05:18:38;;;;;;;0.82;0.40;;;;;;;;;;5032793;28;20033;-76
2023/01/12 05:21:03;;;;;;;0.90;0.52;;;;;;;;;;5017867;28;20569;-75
2023/01/12 05:23:29;;;;;;;1.23;0.40;;;;;;;;;;5017562;28;20379;-77
2023/01/12 05:26:01;;;;;;;0.65;0.30;;;;;;;;;;5020628;28;20540;-75
2023/01/12 05:28:30;;;;;;;2.72;0.65;;;;;;;;;;5020853;28;20445;-74
2023/01/12 05:31:01;;;;;;;1.88;0.43;;;;;;;;;;5023991;28;20481;-76
2023/01/12 05:33:27;;;;;;;4.53;0.57;;;;;;;;;;5024131;28;20145;-76
2023/01/12 05:35:52;;;;;;;3.80;0.50;;;;;;;;;;5031602;28;20536;-77
2023/01/12 05:38:17;;;;;;;2.38;0.60;;;;;;;;;;5020243;28;20512;-76
2023/01/12 05:40:43;;;;;;;0.90;0.57;;;;;;;;;;5031612;28;20039;-75
2023/01/12 05:45:56;;;;;;;4.40;0.52;;;;;;;;;;5023589;28;20112;-76
2023/01/12 05:48:21;;;;;;;1.45;0.60;;;;;;;;;;5024047;28;20076;-75
2023/01/12 05:50:47;;;;;;;6.70;0.82;;;;;;;;;;5023242;28;20444;-75
2023/01/12 05:53:12;;;;;;;1.15;0.40;;;;;;;;;;5025449;28;20045;-76
2023/01/12 05:55:38;;;;;;;1.55;0.55;;;;;;;;;;5019505;28;20441;-77
2023/01/12 05:58:03;;;;;;;2.55;0.68;;;;;;;;;;5026484;28;20030;-75
2023/01/12 06:00:29;;;;;;;3.80;0.63;;;;;;;;;;5017984;28;20473;-76
2023/01/12 06:02:54;;;;;;;2.05;0.60;;;;;;;;;;5016613;28;20099;-76
2023/01/12 06:05:19;;;;;;;1.88;0.35;;;;;;;;;;5025334;28;20038;-75
2023/01/12 06:07:45;;;;;;;2.25;0.75;;;;;;;;;;5023667;28;20045;-76
2023/01/12 06:10:11;;;;;;;4.63;0.75;;;;;;;;;;5021333;28;20112;-76
2023/01/12 06:15:40;;;;;;;3.72;0.68;;;;;;;;;;4994840;28;20181;-76
2023/01/12 06:18:05;;;;;;;5.97;1.05;;;;;;;;;;4997089;28;20569;-75
2023/01/12 06:20:31;;;;;;;4.50;0.82;;;;;;;;;;5000468;28;20061;-76
2023/01/12 06:23:01;;;;;;;2.17;0.60;;;;;;;;;;5029662;28;20159;-75
2023/01/12 06:25:28;;;;;;;4.88;0.80;;;;;;;;;;5019375;28;20516;-75
2023/01/12 06:27:53;;;;;;;3.33;0.73;;;;;;;;;;5018304;28;20443;-77
2023/01/12 06:30:19;;;;;;;4.88;0.93;;;;;;;;;;5024043;28;20042;-75
2023/01/12 06:32:44;;;;;;;1.60;0.70;;;;;;;;;;5027532;28;20038;-76
2023/01/12 06:35:10;;;;;;;6.53;0.82;;;;;;;;;;5025868;28;20033;-75
2023/01/12 06:37:35;;;;;;;3.90;0.80;;;;;;;;;;5029903;28;20405;-75
2023/01/12 06:40:01;;;;;;;6.22;1.27;;;;;;;;;;5023304;28;20033;-76
2023/01/12 06:42:29;;;;;;;5.18;0.98;;;;;;;;;;5028827;28;20083;-75
2023/01/12 06:44:59;;;;;;;6.97;1.20;;;;;;;;;;5022035;28;20061;-77
2023/01/12 06:47:27;;;;;;;3.92;0.70;;;;;;;;;;5014342;28;20046;-75
2023/01/12 06:49:52;;;;;;;6.68;0.90;;;;;;;;;;5024360;28;20046;-76
2023/01/12 06:52:23;;;;;;;2.20;1.17;;;;;;;;;;5022773;28;20057;-76
2023/01/12 06:54:49;;;;;;;1.40;0.45;;;;;;;;;;5021883;28;20091;-75
2023/01/12 06:57:14;;;;;;;3.55;1.08;;;;;;;;;;5020506;28;20038;-76
2023/01/12 06:59:42;;;;;;;3.38;0.50;;;;;;;;;;5020699;28;20042;-76
2023/01/12 07:02:12;;;;;;;1.67;0.60;;;;;;;;;;5024715;28;20034;-76
2023/01/12 07:04:38;;;;;;;2.70;0.73;;;;;;;;;;5019187;28;20037;-77
2023/01/12 07:07:03;;;;;;;4.32;0.90;;;;;;;;;;5029736;28;20121;-76
2023/01/12 07:09:29;;;;;;;3.20;0.70;;;;;;;;;;5026186;28;20108;-75
2023/01/12 07:11:54;;;;;;;1.85;0.40;;;;;;;;;;5022456;28;20103;-75
2023/01/12 07:14:19;;;;;;;3.65;0.70;;;;;;;;;;5024981;28;20064;-75
2023/01/12 07:16:45;;;;;;;1.52;0.63;;;;;;;;;;5032628;28;20462;-76
2023/01/12 07:19:10;;;;;;;2.00;0.50;;;;;;;;;;5029372;28;20482;-76
2023/01/12 07:21:36;;;;;;;1.55;0.50;;;;;;;;;;5029562;28;20081;-75
2023/01/12 07:24:01;;;;;;;3.35;0.60;;;;;;;;;;5029174;28;20033;-76
2023/01/12 07:26:26;;;;;;;0.70;0.28;;;;;;;;;;5026166;28;20037;-75
2023/01/12 07:28:52;;;;;;;1.63;0.50;;;;;;;;;;5021415;28;20079;-76
2023/01/12 07:31:17;;;;;;;2.38;0.70;;;;;;;;;;5015336;28;20547;-76
2023/01/12 07:33:43;;;;;;;3.80;0.68;;;;;;;;;;5025934;28;20048;-75
2023/01/12 07:36:08;;;;;;;1.77;0.50;;;;;;;;;;5017949;28;20045;-75
2023/01/12 07:38:34;;;;;;;3.75;0.70;;;;;;;;;;5019897;28;20404;-75
2023/01/12 07:41:00;;;;;;;4.40;0.60;;;;;;;;;;5020714;28;20040;-76
2023/01/12 07:43:26;;;;;;;1.38;0.40;;;;;;;;;;5018002;28;20053;-75
2023/01/12 07:45:52;;;;;;;4.00;0.70;;;;;;;;;;5024911;28;20037;-75
2023/01/12 07:48:20;;;;;;;1.90;0.45;;;;;;;;;;5021631;28;20418;-75
2023/01/12 07:50:45;;;;;;;6.57;0.70;;;;;;;;;;5014453;28;20553;-75
2023/01/12 07:53:10;;;;;;;2.20;0.43;;;;;;;;;;5031260;28;20056;-75
2023/01/12 07:55:38;;;;;;;1.98;0.70;;;;;;;;;;5028025;28;20026;-76
2023/01/12 07:58:05;;;;;;;3.58;0.70;;;;;;;;;;5023527;28;20508;-75
2023/01/12 08:00:30;;;;;;;1.60;0.52;;;;;;;;;;5020624;28;20049;-75
2023/01/12 08:03:08;;;;;;;1.92;0.57;;;;;;;;;;5019837;28;20060;-77
2023/01/12 08:05:34;;;;;;;2.70;0.50;;;;;;;;;;5018440;28;20041;-74
2023/01/12 08:08:00;;;;;;;1.95;0.50;;;;;;;;;;5023823;28;20033;-75
2023/01/12 08:10:26;;;;;;;2.55;0.57;;;;;;;;;;5016305;28;20501;-75
2023/01/12 08:12:52;;;;;;;2.67;0.50;;;;;;;;;;5013032;28;20091;-75
2023/01/12 08:15:17;;;;;;;1.25;0.40;;;;;;;;;;5016600;28;20491;-76
2023/01/12 08:17:50;;;;;;;0.45;0.32;;;;;;;;;;5021749;28;20041;-75
2023/01/12 08:20:20;;;;;;;2.15;0.80;;;;;;;;;;5018639;28;20042;-75
2023/01/12 08:22:48;;;;;;;0.75;0.30;;;;;;;;;;5022109;28;20432;-75
2023/01/12 08:25:20;;;;;;;1.02;0.32;;;;;;;;;;5026110;28;20030;-75
2023/01/12 08:27:49;;;;;;;2.58;0.47;;;;;;;;;;5019241;28;20040;-75
2023/01/12 08:30:17;;;;;;;0.98;0.40;;;;;;;;;;5023543;28;20156;-75
2023/01/12 08:32:42;;;;;;;2.05;0.57;;;;;;;;;;5021939;28;20030;-74
2023/01/12 08:35:08;;;;;;;1.42;0.52;;;;;;;;;;5024730;28;20045;-75
2023/01/12 08:37:34;;;;;;;0.35;0.25;;;;;;;;;;5016172;28;20579;-74
2023/01/12 08:40:00;;;;;;;0.55;0.35;;;;;;;;;;5012072;28;20115;-75
2023/01/12 08:42:26;;;;;;;2.25;0.40;;;;;;;;;;5013932;28;20041;-75
2023/01/12 08:44:53;;;;;;;0.50;0.30;;;;;;;;;;5010559;28;20478;-75
2023/01/12 08:47:21;;;;;;;2.47;0.63;;;;;;;;;;5019446;28;20037;-75
2023/01/12 08:49:47;;;;;;;1.55;0.57;;;;;;;;;;5015637;28;20045;-78
2023/01/12 08:52:14;;;;;;;0.35;0.30;;;;;;;;;;5021160;28;20033;-75
2023/01/12 08:54:39;;;;;;;3.65;0.88;;;;;;;;;;5016388;28;20030;-75
2023/01/12 08:57:04;;;;;;;3.35;0.80;;;;;;;;;;5021118;28;20553;-74
2023/01/12 08:59:30;;;;;;;0.80;0.47;;;;;;;;;;5018587;28;20040;-75
2023/01/12 09:01:55;;;;;;;3.30;0.60;;;;;;;;;;5021687;28;20060;-74
2023/01/12 09:04:21;;;;;;;1.42;0.50;;;;;;;;;;5018008;28;20081;-75
2023/01/12 09:06:47;;;;;;;1.52;0.57;;;;;;;;;;5013347;28;20037;-75
2023/01/12 09:09:15;;;;;;;1.10;0.60;;;;;;;;;;5015292;28;20473;-75
2023/01/12 09:11:42;;;;;;;1.30;0.50;;;;;;;;;;5017054;28;20068;-75
2023/01/12 09:14:09;;;;;;;2.95;0.60;;;;;;;;;;5018049;28;20029;-75
2023/01/12 09:16:38;;;;;;;2.90;0.85;;;;;;;;;;5013219;28;20033;-76
2023/01/12 09:19:04;;;;;;;1.15;0.47;;;;;;;;;;4991061;28;20063;-75
2023/01/12 09:21:30;;;;;;;1.38;0.63;;;;;;;;;;5013110;28;20630;-75
2023/01/12 09:23:55;;;;;;;1.13;0.40;;;;;;;;;;5021900;28;20428;-74
2023/01/12 09:26:30;;;;;;;2.15;0.60;;;;;;;;;;5017254;28;20096;-74
2023/01/12 09:28:57;;;;;;;1.08;0.40;;;;;;;;;;5020236;28;20049;-75
2023/01/12 09:31:22;;;;;;;0.45;0.40;;;;;;;;;;5014728;28;20087;-75
2023/01/12 09:33:48;;;;;;;0.60;0.30;;;;;;;;;;5019915;28;20029;-78
2023/01/12 09:36:25;;;;;;;0.35;0.30;;;;;;;;;;5024870;28;20033;-75
2023/01/12 09:38:51;;;;;;;0.28;0.28;;;;;;;;;;5015007;28;20513;-74
2023/01/12 09:47:38;;;;;;;0.35;0.30;;;;;;;;;;5038028;28;20132;-74
2023/01/12 09:50:32;;;;;;;0.52;0.30;;;;;;;;;;5022791;28;20135;-74
2023/01/12 09:53:06;;;;;;;0.77;0.35;;;;;;;;;;5016816;28;20049;-74
2023/01/12 09:55:56;;;;;;;;;;;;;;;;;;5022051;28;20512;-74
2023/01/12 09:58:40;;;;;;;0.25;0.20;;;;;;;;;;5020726;28;20280;-74
2023/01/12 10:01:11;;;;;;;2.20;0.40;;;;;;;;;;5025440;28;20045;-74
2023/01/12 10:03:40;;;;;;;3.95;0.45;;;;;;;;;;5018991;28;20117;-78
2023/01/12 10:06:08;;;;;;;1.13;0.30;;;;;;;;;;4986367;28;20034;-74
2023/01/12 10:08:39;;;;;;;2.78;0.40;;;;;;;;;;5025479;28;20046;-74
2023/01/12 10:11:07;;;;;;;1.48;0.68;;;;;;;;;;5017832;28;20042;-74
2023/01/12 10:13:53;;;;;;;2.10;0.40;;;;;;;;;;5009799;28;20045;-75
2023/01/12 10:16:25;;;;;;;2.30;0.50;;;;;;;;;;5024082;28;20112;-74
2023/01/12 10:18:56;;;;;;;2.08;0.50;;;;;;;;;;5026318;28;20482;-74
2023/01/12 10:21:22;;;;;;;3.67;0.73;;;;;;;;;;5013940;28;20092;-77
2023/01/12 10:23:49;;;;;;;2.17;0.75;;;;;;;;;;5002770;28;20026;-74
2023/01/12 10:26:30;;;;;;;4.78;0.98;;;;;;;;;;5016165;28;20030;-74
2023/01/12 10:28:57;;;;;;;2.47;0.85;;;;;;;;;;5014154;28;20041;-75
2023/01/12 10:31:23;;;;;;;6.03;1.38;;;;;;;;;;5024054;28;20049;-74
2023/01/12 10:34:09;;;;;;;7.07;1.20;;;;;;;;;;5018449;28;20105;-74
2023/01/12 10:36:48;;;;;;;11.05;2.03;;;;;;;;;;5027117;28;20512;-74
2023/01/12 10:39:34;;;;;;;7.63;2.00;;;;;;;;;;5016084;28;20046;-75
2023/01/12 10:45:21;;;;;;;15.95;2.92;;;;;;;;;;5019006;28;20115;-74
2023/01/12 10:47:48;;;;;;;12.32;2.67;;;;;;;;;;5016973;28;20041;-76
2023/01/12 10:50:19;;;;;;;12.00;2.15;;;;;;;;;;5026373;28;20045;-74
2023/01/12 10:52:45;;;;;;;21.30;3.78;;;;;;;;;;5027668;28;20037;-75
2023/01/12 10:55:18;;;;;;;15.45;2.55;;;;;;;;;;5017543;28;20084;-74
2023/01/12 10:57:46;;;;;;;12.63;1.90;;;;;;;;;;5011571;28;20061;-74
2023/01/12 11:00:23;;;;;;;4.82;1.27;;;;;;;;;;5015324;28;20059;-76
2023/01/12 11:02:49;;;;;;;12.50;1.90;;;;;;;;;;5022354;28;20033;-74
2023/01/12 11:05:38;;;;;;;9.52;1.85;;;;;;;;;;5019964;28;20388;-74
2023/01/12 11:08:24;;;;;;;10.25;1.55;;;;;;;;;;5004084;28;20034;-78
2023/01/12 11:10:50;;;;;;;7.25;1.55;;;;;;;;;;5014829;28;20481;-74
2023/01/12 11:13:31;;;;;;;13.20;2.25;;;;;;;;;;5012536;28;20040;-77
2023/01/12 11:16:11;;;;;;;9.88;2.08;;;;;;;;;;5010644;28;20072;-75
2023/01/12 11:18:45;;;;;;;10.23;1.38;;;;;;;;;;5011956;28;20413;-74
2023/01/12 11:21:19;;;;;;;12.27;2.70;;;;;;;;;;5021974;28;20096;-74
2023/01/12 11:24:03;;;;;;;7.85;1.67;;;;;;;;;;5022034;28;20060;-75
2023/01/12 11:26:43;;;;;;;12.80;1.48;;;;;;;;;;5009908;28;20415;-74
2023/01/12 11:29:20;;;;;;;6.18;1.13;;;;;;;;;;4999408;28;20056;-74
2023/01/12 11:31:48;;;;;;;7.15;0.98;;;;;;;;;;5026071;28;20041;-74
2023/01/12 11:34:17;;;;;;;3.78;1.00;;;;;;;;;;5024977;28;20068;-75
2023/01/12 11:36:46;;;;;;;7.53;1.27;;;;;;;;;;5009719;28;20044;-74
2023/01/12 11:39:14;;;;;;;6.15;1.20;;;;;;;;;;5036544;28;20033;-77
2023/01/12 11:43:47;;;;;;;2.47;0.80;;;;;;;;;;5008593;28;20030;-74
2023/01/12 11:44:38;;;;;;;2.25;0.60;;;;;;;;;;5017357;28;20050;-75
2023/01/12 11:47:05;;;;;;;2.90;1.02;;;;;;;;;;5013757;28;20037;-74
2023/01/12 11:49:54;;;;;;;1.88;0.70;;;;;;;;;;5013106;28;20046;-76
2023/01/12 11:52:19;;;;;;;3.83;0.95;;;;;;;;;;5010099;28;20046;-75
2023/01/12 11:54:45;;;;;;;3.42;0.88;;;;;;;;;;5012584;28;20512;-74
2023/01/12 11:57:48;;;;;;;3.17;0.80;;;;;;;;;;5026214;28;20725;-74
2023/01/12 12:00:35;;;;;;;3.95;0.88;;;;;;;;;;5008800;28;20108;-77
2023/01/12 12:03:27;;;;;;;2.53;0.80;;;;;;;;;;5012318;28;20040;-74
2023/01/12 12:06:07;;;;;;;4.10;0.90;;;;;;;;;;5019275;28;20037;-74
2023/01/12 12:08:39;;;;;;;5.25;1.25;;;;;;;;;;5020747;28;20258;-75
2023/01/12 12:11:28;;;;;;;5.03;1.13;;;;;;;;;;5021100;28;20041;-74
2023/01/12 12:14:32;;;;;;;5.25;1.20;;;;;;;;;;4988819;28;20110;-74
2023/01/12 12:17:15;;;;;;;6.10;1.30;;;;;;;;;;5007125;28;20054;-74
2023/01/12 12:20:14;;;;;;;7.93;1.52;;;;;;;;;;5017830;28;20034;-74
2023/01/12 12:22:51;;;;;;;6.70;1.30;;;;;;;;;;5006163;28;20041;-74
2023/01/12 12:25:22;;;;;;;8.93;1.50;;;;;;;;;;5025758;28;20029;-74
2023/01/12 12:27:57;;;;;;;7.05;1.67;;;;;;;;;;5015168;28;20046;-75
2023/01/12 12:30:36;;;;;;;10.48;1.58;;;;;;;;;;5030689;28;20033;-75
2023/01/12 12:33:27;;;;;;;11.75;1.95;;;;;;;;;;5024985;28;20040;-74
2023/01/12 12:36:31;;;;;;;7.07;1.52;;;;;;;;;;5017174;28;20050;-74
2023/01/12 12:39:41;;;;;;;8.60;1.42;;;;;;;;;;5018081;28;20056;-75
2023/01/12 12:45:40;;;;;;;6.22;1.45;;;;;;;;;;5012238;28;20536;-75
2023/01/12 12:48:11;;;;;;;13.75;1.60;;;;;;;;;;4990527;28;20053;-75
2023/01/12 12:51:01;;;;;;;7.45;1.60;;;;;;;;;;5009530;28;20057;-75
2023/01/12 12:53:29;;;;;;;11.70;2.00;;;;;;;;;;4998909;28;20379;-75
2023/01/12 12:56:04;;;;;;;6.10;1.90;;;;;;;;;;5026015;28;20493;-74
2023/01/12 12:58:39;;;;;;;15.35;2.50;;;;;;;;;;5041766;28;20049;-74
2023/01/12 13:01:19;;;;;;;14.82;1.95;;;;;;;;;;5018518;28;20076;-76
2023/01/12 13:03:55;;;;;;;10.85;2.28;;;;;;;;;;5017615;28;20108;-75
2023/01/12 13:06:30;;;;;;;21.48;2.90;;;;;;;;;;5011180;28;20199;-78
2023/01/12 13:08:59;;;;;;;24.65;3.40;;;;;;;;;;5001782;28;20046;-76
2023/01/12 13:11:52;;;;;;;13.63;2.47;;;;;;;;;;5021897;28;20478;-75
2023/01/12 13:14:24;;;;;;;20.10;3.05;;;;;;;;;;5019370;28;20037;-77
2023/01/12 13:16:51;;;;;;;17.67;2.63;;;;;;;;;;5021605;28;20041;-75
2023/01/12 13:19:41;;;;;;;18.17;2.63;;;;;;;;;;5016738;28;20042;-75
2023/01/12 13:22:28;;;;;;;21.80;2.83;;;;;;;;;;5026885;28;20529;-75
2023/01/12 13:24:58;;;;;;;20.25;3.22;;;;;;;;;;5015220;28;20049;-74
2023/01/12 13:28:02;;;;;;;12.75;2.15;;;;;;;;;;5025097;28;20049;-74
2023/01/12 13:30:28;;;;;;;15.43;2.50;;;;;;;;;;4999785;28;20475;-74
2023/01/12 13:32:58;;;;;;;26.92;3.55;;;;;;;;;;5006617;28;20060;-74
2023/01/12 13:35:29;;;;;;;12.48;2.08;;;;;;;;;;5010328;28;20041;-74
2023/01/12 13:37:55;;;;;;;22.10;3.13;;;;;;;;;;5024561;28;20153;-74
2023/01/12 13:40:25;;;;;;;17.25;2.42;;;;;;;;;;5021420;28;20045;-76
2023/01/12 13:46:00;;;;;;;18.08;2.72;;;;;;;;;;5022776;28;20055;-74
2023/01/12 13:48:26;;;;;;;27.00;3.35;;;;;;;;;;5019815;28;20032;-74
2023/01/12 13:50:58;;;;;;;32.65;4.72;;;;;;;;;;5020922;28;20057;-74
2023/01/12 13:53:26;;;;;;;18.30;2.97;;;;;;;;;;5022806;28;20048;-74
2023/01/12 13:55:59;;;;;;;27.95;4.22;;;;;;;;;;5031093;28;20033;-74
2023/01/12 13:58:25;;;;;;;31.35;4.10;;;;;;;;;;5014994;28;20168;-74
2023/01/12 14:00:58;;;;;;;20.08;3.28;;;;;;;;;;5003546;28;20137;-74
2023/01/12 14:03:49;;;;;;;29.33;3.83;;;;;;;;;;5013764;28;20095;-75
2023/01/12 14:06:23;;;;;;;20.13;3.38;;;;;;;;;;5015886;28;20034;-74
2023/01/12 14:08:50;;;;;;;;;;;;;;;;;;5014549;28;20525;-74
2023/01/12 14:11:34;;;;;;;24.35;3.47;;;;;;;;;;5015708;28;19959;-73
2023/01/12 14:17:47;;;;;;;20.52;3.65;;;;;;;;;;5023091;28;20037;-74
2023/01/12 14:19:39;;;;;;;25.35;4.65;;;;;;;;;;5011234;28;20062;-78
2023/01/12 14:22:04;;;;;;;22.92;3.55;;;;;;;;;;5018252;28;20121;-74
2023/01/12 14:24:30;;;;;;;34.55;5.20;;;;;;;;;;5020610;28;20124;-73
2023/01/12 14:26:56;;;;;;;24.85;3.75;;;;;;;;;;5021858;28;20041;-74
2023/01/12 14:29:21;;;;;;;31.95;4.60;;;;;;;;;;5026233;28;20500;-73
2023/01/12 14:31:54;;;;;;;27.52;4.18;;;;;;;;;;5023230;28;20045;-77
2023/01/12 14:34:33;;;;;;;17.87;3.33;;;;;;;;;;5014432;28;20112;-74
2023/01/12 14:37:00;;;;;;;24.02;3.80;;;;;;;;;;5025224;28;20116;-73
2023/01/12 14:39:27;;;;;;;34.53;3.90;;;;;;;;;;5013691;28;20393;-73
2023/01/12 14:47:34;;;;;;;31.52;3.80;;;;;;;;;;5018998;28;20080;-73
2023/01/12 14:50:29;;;;;;;36.38;4.72;;;;;;;;;;5023989;28;20444;-73
2023/01/12 14:52:54;;;;;;;44.22;4.82;;;;;;;;;;5006890;28;20396;-73
2023/01/12 14:55:37;;;;;;;34.70;4.15;;;;;;;;;;5023133;28;20072;-75
2023/01/12 14:58:04;;;;;;;18.85;4.53;;;;;;;;;;5024755;28;20034;-73
2023/01/12 15:00:31;;;;;;;34.22;4.55;;;;;;;;;;5022835;28;20037;-74
2023/01/12 15:02:59;;;;;;;25.30;3.88;;;;;;;;;;5014234;28;20065;-74
2023/01/12 15:05:26;;;;;;;38.33;4.60;;;;;;;;;;5009600;28;20429;-74
2023/01/12 15:07:58;;;;;;;24.33;4.32;;;;;;;;;;5014940;28;20046;-74
2023/01/12 15:10:34;;;;;;;25.25;3.75;;;;;;;;;;5014258;28;20409;-73
2023/01/12 15:13:23;;;;;;;29.35;4.00;;;;;;;;;;5010725;28;20065;-73
2023/01/12 15:27:16;;;;;;;31.83;4.93;;;;;;;;;;5005216;28;20092;-74
2023/01/12 15:29:41;;;;;;;37.55;5.85;;;;;;;;;;5016937;28;20045;-73
2023/01/12 15:32:17;;;;;;;44.58;5.28;;;;;;;;;;5010609;28;20038;-74
2023/01/12 15:34:43;;;;;;;39.00;4.28;;;;;;;;;;5005059;28;20110;-75
2023/01/12 15:37:17;;;;;;;24.20;3.63;;;;;;;;;;5013180;28;20114;-74
2023/01/12 15:39:42;;;;;;;30.33;4.30;;;;;;;;;;5011090;28;20116;-73
2023/01/12 15:42:16;;;;;;;30.88;4.85;;;;;;;;;;5011350;28;20116;-73
2023/01/12 15:44:46;;;;;;;34.15;3.92;;;;;;;;;;5008883;28;20125;-73
2023/01/12 15:47:12;;;;;;;32.30;4.65;;;;;;;;;;5012148;28;20037;-73
2023/01/12 15:49:39;;;;;;;19.27;3.28;;;;;;;;;;5001326;28;20101;-74
2023/01/12 15:52:08;;;;;;;38.83;4.90;;;;;;;;;;5011764;28;20030;-74
2023/01/12 15:54:33;;;;;;;31.02;5.22;;;;;;;;;;5007490;28;20096;-79
2023/01/12 15:56:59;;;;;;;18.67;3.83;;;;;;;;;;5013883;28;20030;-74
2023/01/12 15:59:24;;;;;;;20.70;3.58;;;;;;;;;;5010998;28;20069;-75
2023/01/12 16:01:50;;;;;;;18.38;3.47;;;;;;;;;;5017866;28;20076;-75
2023/01/12 16:04:22;;;;;;;18.38;4.75;;;;;;;;;;5014170;28;20033;-76